createdAt,value
2022-10-06T00:01:42.826Z,70.21
2022-10-06T00:05:10.570Z,69.89
2022-10-06T00:08:40.698Z,70.23
2022-10-06T00:12:09.227Z,70.12
2022-10-06T00:15:38.619Z,70.27
2022-10-06T00:19:06.225Z,70.23
2022-10-06T00:22:48.227Z,70.28
2022-10-06T00:26:18.056Z,70.38
2022-10-06T00:29:45.277Z,70.17
2022-10-06T00:33:16.390Z,70.31
2022-10-06T00:36:44.234Z,70.17
2022-10-06T00:40:14.126Z,70.21
2022-10-06T00:43:46.549Z,70.30
2022-10-06T00:47:13.591Z,70.40
2022-10-06T00:50:42.076Z,70.34
2022-10-06T00:54:12.185Z,70.35
2022-10-06T00:57:42.342Z,70.60
2022-10-06T01:01:10.704Z,70.73
2022-10-06T01:04:42.701Z,70.71
2022-10-06T01:08:10.319Z,70.69
2022-10-06T01:11:38.104Z,70.84
2022-10-06T01:15:05.361Z,70.81
2022-10-06T01:18:34.001Z,70.90
2022-10-06T01:22:19.453Z,70.72
2022-10-06T01:26:02.242Z,70.91
2022-10-06T01:29:29.316Z,71.11
2022-10-06T01:32:56.207Z,70.91
2022-10-06T01:36:23.826Z,71.09
2022-10-06T01:39:51.885Z,70.99
2022-10-06T01:43:18.496Z,71.09
2022-10-06T01:46:45.812Z,71.21
2022-10-06T01:50:13.080Z,71.25
2022-10-06T01:53:39.798Z,71.09
2022-10-06T01:57:09.107Z,70.98
2022-10-06T02:00:35.915Z,71.15
2022-10-06T02:04:03.843Z,71.23
2022-10-06T02:07:30.704Z,71.07
2022-10-06T02:10:57.346Z,71.10
2022-10-06T02:14:26.328Z,71.15
2022-10-06T02:17:54.412Z,71.27
2022-10-06T02:21:26.945Z,71.41
2022-10-06T02:24:54.622Z,71.46
2022-10-06T02:28:22.037Z,71.45
2022-10-06T02:31:49.748Z,71.56
2022-10-06T02:35:17.784Z,71.57
2022-10-06T02:38:45.693Z,71.67
2022-10-06T02:42:13.179Z,71.69
2022-10-06T02:45:40.121Z,71.70
2022-10-06T02:49:07.410Z,71.91
2022-10-06T02:52:43.046Z,71.88
2022-10-06T02:56:13.190Z,71.89
2022-10-06T02:59:39.906Z,71.80
2022-10-06T03:03:06.907Z,72.00
2022-10-06T03:06:34.533Z,72.00
2022-10-06T03:10:21.885Z,72.02
2022-10-06T03:13:50.145Z,71.98
2022-10-06T03:17:17.612Z,72.04
2022-10-06T03:20:49.019Z,72.26
2022-10-06T03:24:16.214Z,72.29
2022-10-06T03:27:45.557Z,72.38
2022-10-06T03:31:13.902Z,72.38
2022-10-06T03:34:40.636Z,72.30
2022-10-06T03:38:11.160Z,72.38
2022-10-06T03:41:40.553Z,72.45
2022-10-06T03:45:11.098Z,72.61
2022-10-06T03:48:38.627Z,72.62
2022-10-06T03:52:09.273Z,72.49
2022-10-06T03:55:38.525Z,72.39
2022-10-06T03:59:08.627Z,72.44
2022-10-06T04:02:36.008Z,72.63
2022-10-06T04:06:04.599Z,72.53
2022-10-06T04:09:37.405Z,72.51
2022-10-06T04:13:05.304Z,72.59
2022-10-06T04:16:36.385Z,72.48
2022-10-06T04:20:06.713Z,72.55
2022-10-06T04:23:34.205Z,72.50
2022-10-06T04:27:15.843Z,72.53
2022-10-06T04:30:44.607Z,72.70
2022-10-06T04:34:15.005Z,72.79
2022-10-06T04:37:43.980Z,72.90
2022-10-06T04:41:12.913Z,72.94
2022-10-06T04:44:39.582Z,72.98
2022-10-06T04:48:10.160Z,73.04
2022-10-06T04:51:37.864Z,73.18
2022-10-06T04:55:06.948Z,73.36
2022-10-06T04:58:40.344Z,73.41
2022-10-06T05:02:13.904Z,73.30
2022-10-06T05:05:42.114Z,73.27
2022-10-06T05:09:11.944Z,73.50
2022-10-06T05:12:44.355Z,73.52
2022-10-06T05:16:14.793Z,73.61
2022-10-06T05:19:43.961Z,73.55
2022-10-06T05:23:11.856Z,73.61
2022-10-06T05:26:40.651Z,73.63
2022-10-06T05:30:13.267Z,73.80
2022-10-06T05:33:40.990Z,73.75
2022-10-06T05:37:08.851Z,73.80
2022-10-06T05:40:35.976Z,73.65
2022-10-06T05:44:03.502Z,73.70
2022-10-06T05:47:31.639Z,73.69
2022-10-06T05:51:06.641Z,73.86
2022-10-06T05:54:35.269Z,73.77
2022-10-06T05:58:03.011Z,73.88
2022-10-06T06:01:32.740Z,73.89
2022-10-06T06:05:01.357Z,73.88
2022-10-06T06:08:28.554Z,74.13
2022-10-06T06:11:55.807Z,74.00
2022-10-06T06:15:59.139Z,74.13
2022-10-06T06:19:29.215Z,74.34
2022-10-06T06:22:57.102Z,74.14
2022-10-06T06:26:28.560Z,74.22
2022-10-06T06:29:57.623Z,74.50
2022-10-06T06:33:25.146Z,74.71
2022-10-06T06:36:56.049Z,74.76
2022-10-06T06:40:23.130Z,74.55
2022-10-06T06:43:53.063Z,74.53
2022-10-06T06:47:36.157Z,74.81
2022-10-06T06:51:05.043Z,74.79
2022-10-06T06:54:32.281Z,74.79
2022-10-06T06:58:07.577Z,74.90
2022-10-06T07:01:34.830Z,74.91
2022-10-06T07:05:01.817Z,75.07
2022-10-06T07:08:33.523Z,74.96
2022-10-06T07:12:00.490Z,75.04
2022-10-06T07:15:44.600Z,74.93
2022-10-06T07:19:31.826Z,75.04
2022-10-06T07:23:15.803Z,75.00
2022-10-06T07:26:43.580Z,75.09
2022-10-06T07:30:13.061Z,74.92
2022-10-06T07:33:41.479Z,75.04
2022-10-06T07:37:09.868Z,74.93
2022-10-06T07:40:40.225Z,74.85
2022-10-06T07:44:19.309Z,74.62
2022-10-06T07:47:49.341Z,74.58
2022-10-06T07:51:19.668Z,74.53
2022-10-06T07:54:50.875Z,74.44
2022-10-06T07:58:41.017Z,74.31
2022-10-06T08:02:10.667Z,74.22
2022-10-06T08:05:49.909Z,74.22
2022-10-06T08:09:18.720Z,73.99
2022-10-06T08:12:48.578Z,73.94
2022-10-06T08:16:18.783Z,73.88
2022-10-06T08:19:48.520Z,73.78
2022-10-06T08:23:17.101Z,73.88
2022-10-06T08:26:47.515Z,73.75
2022-10-06T08:30:17.330Z,73.72
2022-10-06T08:33:45.036Z,73.55
2022-10-06T08:37:20.482Z,73.38
2022-10-06T08:40:48.879Z,73.45
2022-10-06T08:44:31.570Z,73.22
2022-10-06T08:48:06.092Z,73.25
2022-10-06T08:51:51.408Z,73.18
2022-10-06T08:55:39.188Z,72.89
2022-10-06T08:59:10.380Z,72.80
2022-10-06T09:02:42.449Z,72.54
2022-10-06T09:06:18.348Z,72.51
2022-10-06T09:09:58.739Z,72.40
2022-10-06T09:13:31.006Z,72.24
2022-10-06T09:17:04.045Z,71.92
2022-10-06T09:20:31.983Z,71.68
2022-10-06T09:24:06.237Z,71.65
2022-10-06T09:27:39.543Z,71.46
2022-10-06T09:31:18.559Z,71.38
2022-10-06T09:34:50.176Z,71.32
2022-10-06T09:38:17.030Z,71.23
2022-10-06T09:41:47.289Z,70.74
2022-10-06T09:45:29.655Z,70.39
2022-10-06T09:49:24.265Z,69.88
2022-10-06T09:53:17.666Z,69.61
2022-10-06T09:56:48.423Z,69.23
2022-10-06T10:07:41.991Z,68.80
2022-10-06T10:11:40.204Z,68.60
2022-10-06T10:15:26.173Z,68.29
2022-10-06T10:18:53.974Z,68.17
2022-10-06T10:22:25.918Z,67.89
2022-10-06T10:26:05.703Z,67.88
2022-10-06T10:30:08.362Z,67.60
2022-10-06T10:33:49.669Z,67.65
2022-10-06T10:37:32.376Z,67.47
2022-10-06T10:41:10.178Z,67.15
2022-10-06T10:44:44.756Z,66.76
2022-10-06T10:48:19.238Z,66.57
2022-10-06T10:51:51.242Z,66.31
2022-10-06T10:55:29.982Z,65.63
2022-10-06T10:59:04.421Z,65.03
2022-10-06T11:02:31.721Z,64.68
2022-10-06T11:06:34.546Z,64.20
2022-10-06T11:10:04.657Z,63.83
2022-10-06T11:13:40.180Z,63.68
2022-10-06T11:17:15.792Z,63.12
2022-10-06T11:20:49.973Z,63.00
2022-10-06T11:24:21.182Z,62.89
2022-10-06T11:27:56.762Z,62.68
2022-10-06T11:31:34.503Z,62.28
2022-10-06T11:35:02.331Z,61.92
2022-10-06T11:38:40.589Z,61.79
2022-10-06T11:42:17.441Z,61.59
2022-10-06T11:45:52.754Z,61.27
2022-10-06T11:49:52.292Z,61.02
2022-10-06T11:53:38.340Z,60.46
2022-10-06T11:57:05.346Z,59.69
2022-10-06T12:00:49.985Z,59.72
2022-10-06T12:04:23.536Z,59.44
2022-10-06T12:08:16.987Z,59.20
2022-10-06T12:11:45.618Z,59.02
2022-10-06T12:19:23.560Z,58.12
2022-10-06T12:22:56.695Z,57.94
2022-10-06T12:26:36.326Z,57.40
2022-10-06T12:30:16.360Z,57.37
2022-10-06T12:33:44.766Z,56.99
2022-10-06T12:37:44.308Z,56.22
2022-10-06T12:41:15.279Z,56.08
2022-10-06T12:44:49.246Z,55.98
2022-10-06T12:48:24.635Z,55.97
2022-10-06T12:51:57.700Z,55.98
2022-10-06T12:55:49.528Z,55.30
2022-10-06T12:59:26.370Z,54.40
2022-10-06T13:02:56.235Z,54.34
2022-10-06T13:06:25.943Z,54.26
2022-10-06T13:09:54.796Z,54.23
2022-10-06T13:13:26.701Z,54.06
2022-10-06T13:16:53.809Z,54.45
2022-10-06T13:20:37.575Z,54.50
2022-10-06T13:24:05.919Z,54.65
2022-10-06T13:27:33.159Z,54.60
2022-10-06T13:31:04.907Z,54.29
2022-10-06T13:34:42.318Z,53.87
2022-10-06T13:38:13.927Z,53.29
2022-10-06T13:41:47.434Z,52.95
2022-10-06T13:45:17.967Z,52.97
2022-10-06T13:48:51.153Z,52.77
2022-10-06T13:52:18.830Z,52.46
2022-10-06T13:55:52.336Z,52.07
2022-10-06T13:59:37.475Z,51.86
2022-10-06T14:03:22.156Z,51.88
2022-10-06T14:06:55.618Z,51.83
2022-10-06T14:10:22.869Z,51.67
2022-10-06T14:13:56.102Z,51.38
2022-10-06T14:17:24.642Z,51.36
2022-10-06T14:20:53.536Z,51.15
2022-10-06T14:24:28.697Z,51.07
2022-10-06T14:27:55.956Z,50.95
2022-10-06T14:31:24.036Z,51.02
2022-10-06T14:34:50.955Z,50.96
2022-10-06T14:38:19.198Z,50.72
2022-10-06T14:41:47.346Z,50.74
2022-10-06T14:45:19.770Z,50.79
2022-10-06T14:48:47.489Z,50.67
2022-10-06T14:52:14.774Z,50.47
2022-10-06T14:55:41.773Z,50.53
2022-10-06T14:59:10.466Z,50.57
2022-10-06T15:02:38.607Z,50.57
2022-10-06T15:06:26.003Z,50.53
2022-10-06T15:09:53.281Z,50.58
2022-10-06T15:13:22.221Z,50.46
2022-10-06T15:16:50.976Z,50.49
2022-10-06T15:20:18.691Z,50.46
2022-10-06T15:23:46.566Z,50.70
2022-10-06T15:27:33.440Z,50.70
2022-10-06T15:31:01.216Z,50.69
2022-10-06T15:34:33.791Z,50.79
2022-10-06T15:38:01.000Z,50.72
2022-10-06T15:41:29.111Z,50.60
2022-10-06T15:44:56.485Z,50.70
2022-10-06T15:48:25.337Z,50.84
2022-10-06T15:51:57.549Z,50.93
2022-10-06T15:55:24.685Z,50.89
2022-10-06T15:58:52.269Z,51.12
2022-10-06T16:02:21.208Z,51.28
2022-10-06T16:05:52.206Z,51.28
2022-10-06T16:09:20.489Z,51.34
2022-10-06T16:12:47.789Z,51.53
2022-10-06T16:16:20.235Z,51.56
2022-10-06T16:19:47.695Z,51.68
2022-10-06T16:23:25.450Z,51.91
2022-10-06T16:26:56.526Z,52.05
2022-10-06T16:30:23.534Z,52.04
2022-10-06T16:33:51.925Z,52.26
2022-10-06T16:37:18.654Z,52.39
2022-10-06T16:40:46.270Z,52.46
2022-10-06T16:44:12.989Z,52.54
2022-10-06T16:47:40.867Z,52.81
2022-10-06T16:51:10.885Z,52.71
2022-10-06T16:54:37.569Z,52.84
2022-10-06T16:58:04.411Z,53.02
2022-10-06T17:01:32.847Z,53.07
2022-10-06T17:05:00.275Z,53.31
2022-10-06T17:08:26.906Z,53.59
2022-10-06T17:11:56.050Z,53.71
2022-10-06T17:15:24.065Z,53.62
2022-10-06T17:18:52.804Z,53.96
2022-10-06T17:22:19.617Z,54.11
2022-10-06T17:25:47.542Z,54.06
2022-10-06T17:29:19.090Z,54.33
2022-10-06T17:32:47.346Z,54.40
2022-10-06T17:36:16.896Z,54.49
2022-10-06T17:39:47.141Z,54.72
2022-10-06T17:43:14.183Z,54.90
2022-10-06T17:46:48.066Z,54.96
2022-10-06T17:50:17.353Z,55.23
2022-10-06T17:53:46.713Z,55.35
2022-10-06T17:57:14.396Z,55.41
2022-10-06T18:00:42.805Z,55.61
2022-10-06T18:04:14.678Z,55.72
2022-10-06T18:07:43.716Z,55.85
2022-10-06T18:11:41.883Z,56.04
2022-10-06T18:15:12.612Z,56.06
2022-10-06T18:18:44.052Z,56.21
2022-10-06T18:22:13.935Z,56.65
2022-10-06T18:25:40.994Z,56.67
2022-10-06T18:29:08.081Z,56.98
2022-10-06T18:34:36.666Z,57.08
2022-10-06T18:36:24.155Z,57.14
2022-10-06T18:39:51.075Z,57.13
2022-10-06T18:43:18.324Z,57.17
2022-10-06T18:47:14.414Z,57.40
2022-10-06T18:50:42.120Z,57.64
2022-10-06T18:54:11.762Z,57.72
2022-10-06T18:57:41.402Z,57.72
2022-10-06T19:01:09.454Z,58.01
2022-10-06T19:04:38.026Z,58.02
2022-10-06T19:08:08.324Z,57.92
2022-10-06T19:11:46.319Z,57.99
2022-10-06T19:15:20.326Z,58.17
2022-10-06T19:18:48.533Z,58.44
2022-10-06T19:22:24.871Z,58.61
2022-10-06T19:25:59.950Z,58.62
2022-10-06T19:29:28.264Z,58.85
2022-10-06T19:32:55.304Z,59.10
2022-10-06T19:36:22.179Z,59.23
2022-10-06T19:39:50.486Z,59.14
2022-10-06T19:43:19.570Z,59.16
2022-10-06T19:46:46.980Z,59.25
2022-10-06T19:50:13.918Z,59.24
2022-10-06T19:53:41.727Z,59.44
2022-10-06T19:57:12.467Z,59.39
2022-10-06T20:00:46.201Z,59.42
2022-10-06T20:04:25.256Z,59.41
2022-10-06T20:07:53.796Z,59.47
2022-10-06T20:11:25.707Z,59.58
2022-10-06T20:14:56.814Z,59.62
2022-10-06T20:18:26.494Z,59.71
2022-10-06T20:22:09.620Z,59.98
2022-10-06T20:25:41.287Z,60.06
2022-10-06T20:29:13.603Z,60.21
2022-10-06T20:32:40.685Z,60.34
2022-10-06T20:36:10.494Z,60.55
2022-10-06T20:39:58.150Z,60.66
2022-10-06T20:43:25.788Z,60.55
2022-10-06T20:46:55.799Z,60.71
2022-10-06T20:50:22.731Z,60.80
2022-10-06T20:53:50.135Z,60.98
2022-10-06T20:57:17.129Z,61.11
2022-10-06T21:00:43.849Z,60.93
2022-10-06T21:04:12.012Z,61.14
2022-10-06T21:07:39.971Z,61.03
2022-10-06T21:11:08.112Z,61.01
2022-10-06T21:14:42.607Z,61.15
2022-10-06T21:18:11.305Z,61.07
2022-10-06T21:21:38.647Z,61.24
2022-10-06T21:25:06.321Z,61.20
2022-10-06T21:28:34.643Z,61.48
2022-10-06T21:32:02.299Z,61.48
2022-10-06T21:35:29.577Z,61.43
2022-10-06T21:39:00.903Z,61.70
2022-10-06T21:42:27.636Z,61.75
2022-10-06T21:46:23.973Z,61.98
2022-10-06T21:49:44.894Z,61.85
2022-10-06T21:53:12.062Z,62.19
2022-10-06T21:56:40.448Z,62.08
2022-10-06T22:00:11.413Z,62.09
2022-10-06T22:03:41.229Z,62.17
2022-10-06T22:07:08.468Z,62.39
2022-10-06T22:10:35.847Z,62.16
2022-10-06T22:14:07.073Z,62.30
2022-10-06T22:17:34.956Z,62.40
2022-10-06T22:21:02.633Z,62.29
2022-10-06T22:24:29.678Z,62.51
2022-10-06T22:27:57.337Z,62.57
2022-10-06T22:31:30.303Z,62.66
2022-10-06T22:34:58.508Z,62.41
2022-10-06T22:38:28.024Z,62.73
2022-10-06T22:41:55.512Z,62.51
2022-10-06T22:45:22.241Z,62.89
2022-10-06T22:48:49.484Z,62.62
2022-10-06T22:52:16.152Z,62.96
2022-10-06T22:55:43.186Z,62.82
2022-10-06T22:59:10.194Z,63.16
2022-10-06T23:02:36.773Z,63.16
2022-10-06T23:06:04.252Z,63.35
2022-10-06T23:09:31.197Z,63.14
2022-10-06T23:13:02.165Z,63.11
2022-10-06T23:16:28.878Z,62.95
2022-10-06T23:19:57.320Z,63.17
2022-10-06T23:23:24.481Z,63.21
2022-10-06T23:26:52.627Z,63.23
2022-10-06T23:30:19.890Z,63.48
2022-10-06T23:33:46.956Z,63.90
2022-10-06T23:37:14.102Z,63.60
2022-10-06T23:40:41.050Z,63.61
2022-10-06T23:44:07.686Z,63.61
2022-10-06T23:47:34.503Z,63.55
2022-10-06T23:51:03.776Z,63.86
2022-10-06T23:54:32.029Z,64.15
2022-10-06T23:57:58.732Z,64.06
